Time;durP1;ratioP1;P1;durP2;ratioP2;P2;SDS_P1;SDS_P2;PMS_P1;PMS_P2;Temp;Humidity;BMP_temperature;BMP_pressure;BME280_temperature;BME280_humidity;BME280_pressure;Samples;Min_cycle;Max_cycle;Signal;HPM_P1;HPM_P2
2022/08/10 00:02:57;;;;;;;13.63;8.35;;;;;;;;;;5012259;28;20085;-68
2022/08/10 00:05:24;;;;;;;14.75;8.27;;;;;;;;;;5011969;28;20146;-68
2022/08/10 00:07:52;;;;;;;16.17;8.95;;;;;;;;;;4993044;28;20058;-68
2022/08/10 00:10:20;;;;;;;16.33;8.80;;;;;;;;;;5011500;28;20439;-68
2022/08/10 00:12:48;;;;;;;14.52;8.23;;;;;;;;;;5011954;28;20050;-68
2022/08/10 00:15:15;;;;;;;16.08;9.43;;;;;;;;;;5011779;28;20057;-69
2022/08/10 00:17:41;;;;;;;20.90;9.88;;;;;;;;;;4993748;28;20062;-68
2022/08/10 00:20:07;;;;;;;;;;;;;;;;;;5012172;28;20057;-68
2022/08/10 00:22:33;;;;;;;16.10;10.15;;;;;;;;;;5011600;28;19997;-69
2022/08/10 00:24:59;;;;;;;16.48;10.35;;;;;;;;;;4993058;28;20065;-68
2022/08/10 00:27:26;;;;;;;18.88;10.80;;;;;;;;;;5011732;28;20061;-68
2022/08/10 00:29:52;;;;;;;17.10;9.77;;;;;;;;;;5011229;28;20470;-68
2022/08/10 00:32:19;;;;;;;18.38;10.25;;;;;;;;;;5011158;28;20042;-68
2022/08/10 00:34:44;;;;;;;;;;;;;;;;;;5011815;28;20498;-69
2022/08/10 00:37:11;;;;;;;16.92;9.82;;;;;;;;;;5011163;28;20050;-68
2022/08/10 00:39:37;;;;;;;15.93;9.77;;;;;;;;;;5011140;28;20124;-68
2022/08/10 00:42:03;;;;;;;;;;;;;;;;;;5011631;28;20127;-68
2022/08/10 00:44:32;;;;;;;18.83;9.85;;;;;;;;;;5011362;28;19922;-68
2022/08/10 00:46:59;;;;;;;;;;;;;;;;;;5011293;28;20157;-68
2022/08/10 00:49:26;;;;;;;17.00;10.75;;;;;;;;;;5011127;28;19937;-68
2022/08/10 00:51:52;;;;;;;18.52;10.65;;;;;;;;;;5011312;28;20080;-68
2022/08/10 00:54:18;;;;;;;21.35;11.80;;;;;;;;;;5011322;28;20451;-68
2022/08/10 00:56:44;;;;;;;;;;;;;;;;;;5011494;28;20152;-68
2022/08/10 00:59:11;;;;;;;20.70;10.80;;;;;;;;;;5011311;28;19995;-69
2022/08/10 01:01:37;;;;;;;22.88;11.63;;;;;;;;;;5011223;28;20053;-68
2022/08/10 01:04:03;;;;;;;20.55;11.65;;;;;;;;;;5011357;28;20058;-69
2022/08/10 01:06:39;;;;;;;20.30;11.00;;;;;;;;;;5010764;28;20454;-68
2022/08/10 01:09:08;;;;;;;18.33;10.88;;;;;;;;;;5010958;28;20049;-68
2022/08/10 01:11:40;;;;;;;20.88;11.15;;;;;;;;;;5010911;28;20099;-68
2022/08/10 01:14:09;;;;;;;18.25;10.60;;;;;;;;;;5010756;28;20427;-69
2022/08/10 01:16:39;;;;;;;17.25;11.27;;;;;;;;;;5010794;28;20119;-68
2022/08/10 01:19:05;;;;;;;17.35;10.80;;;;;;;;;;5010843;28;20132;-68
2022/08/10 01:21:50;;;;;;;17.88;10.48;;;;;;;;;;5010713;28;20173;-68
2022/08/10 01:24:22;;;;;;;19.15;11.00;;;;;;;;;;5010645;28;20120;-68
2022/08/10 01:26:48;;;;;;;17.60;11.15;;;;;;;;;;5010658;28;20049;-68
2022/08/10 01:29:33;;;;;;;18.67;11.13;;;;;;;;;;4992346;28;20045;-69
2022/08/10 01:32:02;;;;;;;22.20;11.95;;;;;;;;;;5010257;28;20504;-68
2022/08/10 01:34:34;;;;;;;21.10;11.30;;;;;;;;;;5010376;28;20049;-68
2022/08/10 01:37:03;;;;;;;19.83;12.32;;;;;;;;;;5010198;28;20381;-69
2022/08/10 01:39:32;;;;;;;20.60;11.82;;;;;;;;;;5010440;28;20155;-68
2022/08/10 01:42:01;;;;;;;22.75;12.80;;;;;;;;;;5010250;28;20351;-68
2022/08/10 01:44:33;;;;;;;19.98;13.02;;;;;;;;;;5010086;28;20166;-68
2022/08/10 01:49:46;;;;;;;;;;;;;;;;;;5010509;28;20175;-68
2022/08/10 01:52:13;;;;;;;18.33;11.88;;;;;;;;;;5010120;28;20024;-68
2022/08/10 01:54:41;;;;;;;20.38;12.02;;;;;;;;;;5009879;28;20056;-68
2022/08/10 01:57:08;;;;;;;25.50;11.68;;;;;;;;;;5010027;28;20053;-68
2022/08/10 01:59:35;;;;;;;21.10;12.55;;;;;;;;;;5009192;28;20370;-68
2022/08/10 02:02:07;;;;;;;19.73;12.13;;;;;;;;;;4991755;28;20045;-68
2022/08/10 02:04:35;;;;;;;19.95;11.25;;;;;;;;;;5010091;28;20046;-68
2022/08/10 02:07:02;;;;;;;18.90;12.32;;;;;;;;;;5010037;28;20045;-68
2022/08/10 02:09:30;;;;;;;20.48;12.13;;;;;;;;;;5009850;28;20065;-69
2022/08/10 02:12:00;;;;;;;17.60;11.48;;;;;;;;;;5009806;28;20046;-68
2022/08/10 02:14:28;;;;;;;20.13;11.98;;;;;;;;;;5009707;28;20081;-68
2022/08/10 02:16:54;;;;;;;23.58;13.10;;;;;;;;;;5009474;28;20132;-68
2022/08/10 02:19:20;;;;;;;;;;;;;;;;;;4992228;28;20046;-72
2022/08/10 02:21:47;;;;;;;22.33;12.73;;;;;;;;;;5009267;28;19987;-68
2022/08/10 02:24:15;;;;;;;18.40;11.63;;;;;;;;;;5009367;28;20112;-68
2022/08/10 02:26:43;;;;;;;21.20;12.52;;;;;;;;;;4991603;28;20327;-69
2022/08/10 02:29:11;;;;;;;20.92;11.73;;;;;;;;;;5009179;28;20073;-68
2022/08/10 02:31:38;;;;;;;20.05;11.48;;;;;;;;;;5009458;28;20123;-69
2022/08/10 02:34:05;;;;;;;17.48;11.18;;;;;;;;;;5009017;28;20065;-68
2022/08/10 02:36:32;;;;;;;19.27;12.18;;;;;;;;;;5009380;28;20053;-68
2022/08/10 02:39:01;;;;;;;20.50;13.73;;;;;;;;;;5009286;28;20166;-68
2022/08/10 02:41:27;;;;;;;20.52;11.98;;;;;;;;;;5009065;28;20042;-68
2022/08/10 02:43:56;;;;;;;20.10;11.95;;;;;;;;;;5009445;28;20049;-68
2022/08/10 02:46:32;;;;;;;21.02;11.63;;;;;;;;;;5009037;28;20085;-68
2022/08/10 02:49:02;;;;;;;17.13;11.47;;;;;;;;;;5009231;28;20041;-68
2022/08/10 02:51:37;;;;;;;18.50;11.20;;;;;;;;;;5008655;28;20100;-68
2022/08/10 02:54:07;;;;;;;20.27;12.05;;;;;;;;;;5008977;28;20048;-68
2022/08/10 02:56:33;;;;;;;21.15;12.18;;;;;;;;;;5008892;28;20058;-68
2022/08/10 02:59:08;;;;;;;21.83;12.70;;;;;;;;;;5009163;28;20045;-68
2022/08/10 03:01:36;;;;;;;18.73;11.88;;;;;;;;;;5008919;28;20090;-68
2022/08/10 03:04:05;;;;;;;19.17;12.65;;;;;;;;;;5008997;28;20045;-68
2022/08/10 03:06:38;;;;;;;20.80;12.70;;;;;;;;;;5008511;28;20528;-68
2022/08/10 03:09:06;;;;;;;21.02;12.18;;;;;;;;;;5008928;28;20042;-68
2022/08/10 03:11:33;;;;;;;22.52;12.48;;;;;;;;;;5012258;28;20152;-68
2022/08/10 03:14:00;;;;;;;21.10;12.93;;;;;;;;;;5012564;28;20041;-68
2022/08/10 03:16:27;;;;;;;23.55;13.45;;;;;;;;;;5012916;28;20120;-68
2022/08/10 03:18:54;;;;;;;21.70;13.40;;;;;;;;;;5012546;28;20148;-68
2022/08/10 03:21:21;;;;;;;23.05;13.25;;;;;;;;;;5012848;28;20049;-68
2022/08/10 03:23:47;;;;;;;20.58;13.05;;;;;;;;;;5012830;28;20091;-68
2022/08/10 03:26:15;;;;;;;22.05;12.75;;;;;;;;;;5012305;28;20061;-68
2022/08/10 03:28:42;;;;;;;19.90;13.10;;;;;;;;;;5013041;28;20239;-68
2022/08/10 03:31:08;;;;;;;22.80;12.70;;;;;;;;;;5012709;28;20058;-68
2022/08/10 03:33:36;;;;;;;22.90;13.68;;;;;;;;;;5012202;28;20129;-68
2022/08/10 03:36:05;;;;;;;21.40;13.50;;;;;;;;;;5012530;28;20045;-68
2022/08/10 03:38:31;;;;;;;21.73;13.43;;;;;;;;;;4994516;28;20053;-68
2022/08/10 03:41:00;;;;;;;21.90;12.82;;;;;;;;;;4994374;28;20050;-67
2022/08/10 03:43:26;;;;;;;25.00;13.82;;;;;;;;;;5011978;28;20536;-68
2022/08/10 03:45:53;;;;;;;21.95;14.32;;;;;;;;;;5011757;28;20347;-68
2022/08/10 03:48:21;;;;;;;20.70;13.85;;;;;;;;;;5012259;28;20145;-68
2022/08/10 03:50:47;;;;;;;20.88;13.50;;;;;;;;;;5011951;28;20046;-68
2022/08/10 03:53:15;;;;;;;19.95;13.45;;;;;;;;;;5012362;28;20117;-68
2022/08/10 03:55:41;;;;;;;22.70;13.40;;;;;;;;;;5011796;28;20062;-69
2022/08/10 03:58:07;;;;;;;;;;;;;;;;;;5012627;28;20069;-68
2022/08/10 04:00:33;;;;;;;21.38;13.07;;;;;;;;;;5011941;28;20327;-69
2022/08/10 04:03:03;;;;;;;21.00;13.40;;;;;;;;;;5012047;28;20057;-68
2022/08/10 04:05:30;;;;;;;22.40;12.82;;;;;;;;;;5011578;28;20476;-68
2022/08/10 04:07:56;;;;;;;20.10;12.70;;;;;;;;;;4993713;28;20468;-68
2022/08/10 04:10:22;;;;;;;24.73;13.40;;;;;;;;;;5012037;28;20045;-68
2022/08/10 04:12:48;;;;;;;21.67;12.90;;;;;;;;;;5011916;28;20049;-68
2022/08/10 04:15:14;;;;;;;20.10;13.05;;;;;;;;;;5012091;28;20049;-69
2022/08/10 04:17:40;;;;;;;20.60;13.73;;;;;;;;;;5011936;28;20046;-69
2022/08/10 04:20:10;;;;;;;23.85;13.23;;;;;;;;;;5011739;28;20488;-68
2022/08/10 04:22:36;;;;;;;20.80;12.73;;;;;;;;;;5010499;28;20514;-68
2022/08/10 04:25:04;;;;;;;20.48;12.85;;;;;;;;;;5011500;28;20069;-69
2022/08/10 04:27:31;;;;;;;21.10;13.60;;;;;;;;;;5011036;28;20461;-69
2022/08/10 04:29:57;;;;;;;22.60;12.88;;;;;;;;;;5011377;28;20054;-69
2022/08/10 04:32:23;;;;;;;25.33;12.55;;;;;;;;;;5010836;28;20380;-68
2022/08/10 04:34:50;;;;;;;20.65;13.15;;;;;;;;;;4993368;28;20106;-69
2022/08/10 04:37:17;;;;;;;24.60;13.32;;;;;;;;;;4993467;28;20439;-68
2022/08/10 04:39:44;;;;;;;23.20;12.30;;;;;;;;;;4993138;28;20193;-69
2022/08/10 04:42:10;;;;;;;22.55;14.00;;;;;;;;;;5010862;28;20458;-68
2022/08/10 04:44:36;;;;;;;19.90;12.90;;;;;;;;;;4993145;28;20062;-69
2022/08/10 04:47:02;;;;;;;21.50;12.07;;;;;;;;;;4992944;28;20046;-68
2022/08/10 04:49:28;;;;;;;;;;;;;;;;;;5011523;28;20133;-68
2022/08/10 04:51:54;;;;;;;23.17;13.90;;;;;;;;;;5025741;28;20408;-68
2022/08/10 04:54:20;;;;;;;20.90;12.48;;;;;;;;;;4993142;28;20100;-68
2022/08/10 04:56:47;;;;;;;23.65;13.57;;;;;;;;;;5010232;28;20466;-69
2022/08/10 04:59:13;;;;;;;22.55;12.98;;;;;;;;;;5011001;28;20119;-69
2022/08/10 05:01:39;;;;;;;22.08;12.88;;;;;;;;;;5011155;28;20474;-68
2022/08/10 05:04:05;;;;;;;21.80;13.20;;;;;;;;;;5010706;28;20133;-68
2022/08/10 05:06:33;;;;;;;19.85;12.80;;;;;;;;;;5011020;28;20046;-69
2022/08/10 05:08:59;;;;;;;25.02;13.07;;;;;;;;;;5010819;28;20081;-68
2022/08/10 05:11:25;;;;;;;23.77;12.95;;;;;;;;;;5010780;28;20078;-69
2022/08/10 05:13:52;;;;;;;21.63;13.13;;;;;;;;;;5010820;28;20100;-69
2022/08/10 05:16:18;;;;;;;22.60;12.50;;;;;;;;;;5010519;28;20546;-68
2022/08/10 05:18:44;;;;;;;23.55;12.82;;;;;;;;;;5010617;28;20447;-68
2022/08/10 05:21:10;;;;;;;22.08;12.80;;;;;;;;;;5010336;28;20510;-69
2022/08/10 05:23:36;;;;;;;21.58;13.70;;;;;;;;;;5010279;28;20049;-68
2022/08/10 05:26:02;;;;;;;20.27;13.45;;;;;;;;;;5010113;28;20060;-69
2022/08/10 05:28:28;;;;;;;23.55;13.23;;;;;;;;;;5010459;28;20112;-68
2022/08/10 05:30:54;;;;;;;25.50;12.93;;;;;;;;;;5009965;28;20057;-68
2022/08/10 05:33:21;;;;;;;23.17;12.75;;;;;;;;;;5010289;28;20076;-68
2022/08/10 05:35:48;;;;;;;24.23;13.18;;;;;;;;;;5009772;28;20476;-68
2022/08/10 05:38:13;;;;;;;;;;;;;;;;;;4992718;28;20064;-67
2022/08/10 05:40:40;;;;;;;24.15;12.07;;;;;;;;;;5010070;28;20060;-69
2022/08/10 05:43:07;;;;;;;23.48;12.32;;;;;;;;;;4991895;28;20173;-68
2022/08/10 05:45:33;;;;;;;20.17;12.18;;;;;;;;;;5009707;28;20156;-68
2022/08/10 05:47:59;;;;;;;;;;;;;;;;;;5010273;28;20088;-68
2022/08/10 05:50:27;;;;;;;20.00;12.10;;;;;;;;;;5009398;28;20327;-68
2022/08/10 05:52:53;;;;;;;19.05;12.02;;;;;;;;;;5009818;28;20046;-69
2022/08/10 05:55:20;;;;;;;21.60;13.13;;;;;;;;;;4991558;28;20378;-68
2022/08/10 05:57:46;;;;;;;;;;;;;;;;;;5010147;28;20061;-68
2022/08/10 06:00:14;;;;;;;21.73;12.30;;;;;;;;;;5009601;28;19997;-67
2022/08/10 06:02:46;;;;;;;19.98;11.45;;;;;;;;;;5009202;28;20072;-67
2022/08/10 06:05:31;;;;;;;17.05;10.82;;;;;;;;;;5009779;28;20052;-68
2022/08/10 06:07:59;;;;;;;20.10;11.45;;;;;;;;;;5009527;28;20066;-69
2022/08/10 06:10:27;;;;;;;22.30;12.05;;;;;;;;;;5009628;28;20074;-68
2022/08/10 06:15:39;;;;;;;19.90;11.48;;;;;;;;;;4991689;28;20148;-68
2022/08/10 06:18:05;;;;;;;20.15;10.80;;;;;;;;;;5009693;28;20046;-68
2022/08/10 06:20:31;;;;;;;;;;;;;;;;;;5009349;28;20435;-68
2022/08/10 06:23:01;;;;;;;19.30;10.90;;;;;;;;;;5009291;28;20003;-68
2022/08/10 06:25:29;;;;;;;20.70;11.63;;;;;;;;;;5009470;28;20056;-68
2022/08/10 06:27:56;;;;;;;19.30;10.75;;;;;;;;;;5009100;28;20141;-70
2022/08/10 06:30:22;;;;;;;20.00;11.10;;;;;;;;;;5009257;28;20088;-68
2022/08/10 06:32:50;;;;;;;22.55;11.02;;;;;;;;;;5009169;28;20046;-69
2022/08/10 06:35:17;;;;;;;19.30;10.63;;;;;;;;;;5008899;28;20046;-68
2022/08/10 06:37:44;;;;;;;17.60;10.73;;;;;;;;;;5009326;28;20064;-68
2022/08/10 06:40:10;;;;;;;20.10;10.18;;;;;;;;;;5009168;28;20133;-68
2022/08/10 06:42:39;;;;;;;18.30;9.98;;;;;;;;;;4991157;28;20466;-68
2022/08/10 06:45:05;;;;;;;17.02;9.13;;;;;;;;;;5008492;28;20053;-68
2022/08/10 06:47:31;;;;;;;;;;;;;;;;;;5009155;28;20045;-68
2022/08/10 06:50:02;;;;;;;15.00;8.40;;;;;;;;;;5009100;28;19972;-69
2022/08/10 06:52:30;;;;;;;16.05;7.55;;;;;;;;;;5009066;28;20037;-68
2022/08/10 06:54:57;;;;;;;17.42;7.10;;;;;;;;;;5008650;28;20058;-68
2022/08/10 06:57:24;;;;;;;16.40;7.10;;;;;;;;;;4991463;28;20057;-69
2022/08/10 06:59:51;;;;;;;16.73;6.80;;;;;;;;;;5009001;28;20050;-68
2022/08/10 07:02:23;;;;;;;16.67;6.70;;;;;;;;;;5009110;28;20128;-68
2022/08/10 07:05:00;;;;;;;12.05;6.38;;;;;;;;;;5009279;28;20050;-69
2022/08/10 07:07:26;;;;;;;;;;;;;;;;;;5011358;28;20069;-69
2022/08/10 07:09:53;;;;;;;13.27;6.15;;;;;;;;;;5010070;28;20342;-69
2022/08/10 07:12:20;;;;;;;13.05;5.93;;;;;;;;;;5009066;28;20046;-68
2022/08/10 07:14:47;;;;;;;15.25;6.00;;;;;;;;;;4990797;28;20123;-69
2022/08/10 07:17:14;;;;;;;15.10;5.32;;;;;;;;;;5008817;28;20108;-69
2022/08/10 07:19:41;;;;;;;10.82;5.60;;;;;;;;;;5008783;28;20127;-69
2022/08/10 07:22:08;;;;;;;14.88;6.25;;;;;;;;;;5008853;28;20054;-69
2022/08/10 07:24:35;;;;;;;15.70;5.82;;;;;;;;;;5008493;28;20050;-69
2022/08/10 07:27:03;;;;;;;12.32;5.50;;;;;;;;;;5008840;28;20056;-70
2022/08/10 07:29:30;;;;;;;13.07;5.85;;;;;;;;;;4990848;28;20066;-69
2022/08/10 07:31:57;;;;;;;16.73;5.90;;;;;;;;;;5008582;28;20094;-68
2022/08/10 07:34:24;;;;;;;12.80;5.03;;;;;;;;;;4990830;28;20042;-69
2022/08/10 07:36:51;;;;;;;12.38;5.22;;;;;;;;;;4990930;28;20070;-68
2022/08/10 07:39:18;;;;;;;12.00;5.35;;;;;;;;;;5008453;28;20081;-69
2022/08/10 07:41:46;;;;;;;12.07;5.57;;;;;;;;;;5008087;28;20049;-69
2022/08/10 07:44:13;;;;;;;11.93;5.20;;;;;;;;;;5008410;28;20147;-68
2022/08/10 07:46:42;;;;;;;10.90;5.30;;;;;;;;;;5008360;28;20140;-68
2022/08/10 07:49:11;;;;;;;12.45;5.15;;;;;;;;;;4990384;28;20121;-68
2022/08/10 07:51:38;;;;;;;13.43;4.90;;;;;;;;;;5008308;28;20077;-68
2022/08/10 07:54:05;;;;;;;10.60;4.50;;;;;;;;;;5008214;28;20042;-69
2022/08/10 07:56:32;;;;;;;13.10;4.97;;;;;;;;;;5007900;28;20106;-69
2022/08/10 07:59:07;;;;;;;13.50;5.70;;;;;;;;;;5011564;28;20184;-69
2022/08/10 08:01:35;;;;;;;12.38;4.80;;;;;;;;;;4994039;28;20483;-69
2022/08/10 08:04:01;;;;;;;10.55;4.75;;;;;;;;;;5012030;28;20073;-69
2022/08/10 08:06:31;;;;;;;11.95;4.65;;;;;;;;;;5011427;28;20177;-69
2022/08/10 08:08:59;;;;;;;13.38;4.88;;;;;;;;;;5011783;28;20065;-68
2022/08/10 08:11:27;;;;;;;14.13;5.22;;;;;;;;;;5011644;28;20049;-68
2022/08/10 08:13:54;;;;;;;12.02;4.63;;;;;;;;;;5011488;28;20120;-68
2022/08/10 08:16:21;;;;;;;12.18;4.80;;;;;;;;;;4994054;28;20102;-68
2022/08/10 08:18:48;;;;;;;12.35;4.40;;;;;;;;;;5011624;28;20046;-69
2022/08/10 08:21:15;;;;;;;11.77;4.60;;;;;;;;;;5011477;28;20522;-69
2022/08/10 08:23:41;;;;;;;10.45;4.47;;;;;;;;;;5011576;28;20413;-69
2022/08/10 08:26:09;;;;;;;11.57;4.65;;;;;;;;;;5011452;28;20124;-68
2022/08/10 08:28:35;;;;;;;14.35;4.60;;;;;;;;;;5010930;28;20133;-67
2022/08/10 08:31:02;;;;;;;12.27;4.35;;;;;;;;;;5010917;28;20062;-67
2022/08/10 08:33:29;;;;;;;12.25;4.20;;;;;;;;;;5010213;28;20103;-68
2022/08/10 08:35:55;;;;;;;14.10;4.72;;;;;;;;;;4992641;28;20137;-67
2022/08/10 08:38:22;;;;;;;10.80;4.68;;;;;;;;;;5009877;28;20065;-67
2022/08/10 08:40:53;;;;;;;11.43;4.40;;;;;;;;;;5011040;28;20140;-67
2022/08/10 08:43:27;;;;;;;11.95;4.38;;;;;;;;;;5010421;28;20430;-68
2022/08/10 08:46:11;;;;;;;12.52;4.13;;;;;;;;;;5010838;28;20493;-68
2022/08/10 08:48:53;;;;;;;13.07;4.28;;;;;;;;;;5010518;28;20144;-67
2022/08/10 08:51:23;;;;;;;10.77;4.30;;;;;;;;;;5010657;28;20122;-68
2022/08/10 08:53:50;;;;;;;12.02;4.45;;;;;;;;;;5010504;28;20050;-68
2022/08/10 08:56:15;;;;;;;;;;;;;;;;;;5010356;28;20122;-70
2022/08/10 08:58:54;;;;;;;13.18;4.68;;;;;;;;;;5009887;28;19929;-68
2022/08/10 09:01:20;;;;;;;15.80;5.10;;;;;;;;;;5010677;28;20205;-69
2022/08/10 09:03:46;;;;;;;;;;;;;;;;;;5010083;28;20077;-68
2022/08/10 09:06:15;;;;;;;13.80;4.07;;;;;;;;;;5009858;28;19940;-69
2022/08/10 09:08:59;;;;;;;12.38;4.65;;;;;;;;;;5009415;28;20065;-67
2022/08/10 09:11:44;;;;;;;12.57;4.20;;;;;;;;;;4992101;28;20359;-68
2022/08/10 09:14:10;;;;;;;11.52;4.40;;;;;;;;;;5010367;28;20204;-67
2022/08/10 09:16:36;;;;;;;;;;;;;;;;;;4993062;28;20090;-68
2022/08/10 09:19:18;;;;;;;12.55;4.30;;;;;;;;;;5009952;28;20063;-67
2022/08/10 09:21:46;;;;;;;10.52;4.13;;;;;;;;;;5010339;28;20116;-69
2022/08/10 09:24:27;;;;;;;13.80;4.72;;;;;;;;;;4992593;28;20057;-68
2022/08/10 09:26:56;;;;;;;12.43;4.07;;;;;;;;;;5009904;28;20053;-67
2022/08/10 09:29:27;;;;;;;11.98;4.00;;;;;;;;;;5010056;28;20133;-68
2022/08/10 09:32:07;;;;;;;12.90;4.60;;;;;;;;;;4992087;28;20136;-67
2022/08/10 09:34:52;;;;;;;12.43;4.53;;;;;;;;;;5009974;28;20419;-68
2022/08/10 09:37:28;;;;;;;10.90;4.43;;;;;;;;;;5009680;28;20076;-67
2022/08/10 09:39:54;;;;;;;12.82;3.78;;;;;;;;;;4991968;28;20065;-68
2022/08/10 09:42:20;;;;;;;;;;;;;;;;;;4992764;28;20050;-67
2022/08/10 09:44:51;;;;;;;10.45;3.78;;;;;;;;;;5009065;28;20007;-67
2022/08/10 09:47:21;;;;;;;12.48;4.20;;;;;;;;;;5009470;28;20042;-68
2022/08/10 09:50:04;;;;;;;10.45;3.60;;;;;;;;;;5009205;28;20088;-68
2022/08/10 09:52:37;;;;;;;9.85;3.63;;;;;;;;;;4991954;28;20133;-69
2022/08/10 09:55:10;;;;;;;11.75;3.47;;;;;;;;;;5009368;28;20401;-69
2022/08/10 09:57:59;;;;;;;10.23;3.70;;;;;;;;;;5008970;28;20050;-68
2022/08/10 10:00:37;;;;;;;11.55;3.40;;;;;;;;;;5009483;28;20046;-69
2022/08/10 10:03:13;;;;;;;11.25;3.53;;;;;;;;;;5009462;28;20042;-68
2022/08/10 10:05:55;;;;;;;10.38;3.80;;;;;;;;;;5009696;28;20506;-68
2022/08/10 10:08:21;;;;;;;13.80;3.72;;;;;;;;;;5008744;28;20069;-68
2022/08/10 10:10:47;;;;;;;;;;;;;;;;;;5009669;28;20057;-69
2022/08/10 10:13:17;;;;;;;10.60;3.60;;;;;;;;;;5010028;28;19928;-69
2022/08/10 10:15:43;;;;;;;8.75;3.20;;;;;;;;;;5009346;28;20083;-68
2022/08/10 10:18:10;;;;;;;;;;;;;;;;;;5010941;28;20038;-68
2022/08/10 10:20:49;;;;;;;9.90;3.30;;;;;;;;;;5008715;28;19978;-68
2022/08/10 10:23:20;;;;;;;9.20;3.65;;;;;;;;;;5008944;28;20042;-68
2022/08/10 10:25:52;;;;;;;9.75;3.25;;;;;;;;;;5008768;28;20180;-68
2022/08/10 10:28:42;;;;;;;12.27;3.17;;;;;;;;;;5008610;28;20062;-69
2022/08/10 10:31:10;;;;;;;10.63;2.97;;;;;;;;;;5008319;28;20463;-68
2022/08/10 10:33:55;;;;;;;8.45;3.00;;;;;;;;;;5008599;28;20053;-69
2022/08/10 10:36:22;;;;;;;9.52;3.20;;;;;;;;;;5008621;28;20070;-68
2022/08/10 10:38:48;;;;;;;8.73;2.88;;;;;;;;;;5008720;28;20057;-68
2022/08/10 10:41:14;;;;;;;9.88;3.05;;;;;;;;;;5009154;28;20046;-68
2022/08/10 10:43:47;;;;;;;11.10;2.97;;;;;;;;;;5009073;28;20054;-68
2022/08/10 10:46:24;;;;;;;7.38;2.67;;;;;;;;;;5009061;28;20065;-69
2022/08/10 10:48:59;;;;;;;9.13;2.92;;;;;;;;;;4990405;28;20097;-68
2022/08/10 10:51:27;;;;;;;8.85;2.80;;;;;;;;;;5009166;28;20064;-68
2022/08/10 10:54:11;;;;;;;11.38;2.60;;;;;;;;;;5008477;28;20438;-67
2022/08/10 10:56:50;;;;;;;7.00;2.45;;;;;;;;;;5008500;28;20181;-67
2022/08/10 10:59:48;;;;;;;9.40;2.63;;;;;;;;;;5007824;28;20098;-68
2022/08/10 11:02:17;;;;;;;8.00;2.38;;;;;;;;;;4964911;28;20057;-68
2022/08/10 11:04:57;;;;;;;7.85;2.88;;;;;;;;;;5008995;28;20042;-68
2022/08/10 11:07:56;;;;;;;7.90;2.13;;;;;;;;;;5008827;28;20117;-68
2022/08/10 11:10:24;;;;;;;13.82;2.67;;;;;;;;;;4965243;28;20106;-69
2022/08/10 11:13:01;;;;;;;7.78;2.40;;;;;;;;;;5008191;28;20046;-71
2022/08/10 11:15:27;;;;;;;;;;;;;;;;;;5009281;28;20054;-68
2022/08/10 11:17:59;;;;;;;9.43;2.80;;;;;;;;;;5007738;28;19940;-69
2022/08/10 11:20:35;;;;;;;8.23;2.50;;;;;;;;;;5008622;28;20046;-68
2022/08/10 11:23:24;;;;;;;6.43;2.35;;;;;;;;;;5009759;28;20069;-70
2022/08/10 11:25:57;;;;;;;7.45;2.47;;;;;;;;;;4991492;28;20054;-69
2022/08/10 11:28:23;;;;;;;8.13;2.40;;;;;;;;;;5008208;28;20054;-70
2022/08/10 11:30:55;;;;;;;7.97;2.80;;;;;;;;;;5008828;28;20118;-69
2022/08/10 11:33:35;;;;;;;5.82;2.25;;;;;;;;;;5011802;28;20042;-69
2022/08/10 11:36:03;;;;;;;8.95;2.67;;;;;;;;;;5012929;28;20192;-69
2022/08/10 11:38:37;;;;;;;10.38;2.65;;;;;;;;;;5012413;28;20532;-68
2022/08/10 11:41:24;;;;;;;6.20;2.50;;;;;;;;;;5011991;28;20107;-69
2022/08/10 11:43:53;;;;;;;6.07;2.45;;;;;;;;;;5011970;28;20386;-68
2022/08/10 11:46:33;;;;;;;9.55;2.30;;;;;;;;;;5012078;28;20482;-69
2022/08/10 11:48:59;;;;;;;8.32;2.50;;;;;;;;;;5011895;28;20152;-69
2022/08/10 11:51:29;;;;;;;5.90;2.40;;;;;;;;;;4994076;28;20065;-68
2022/08/10 11:54:08;;;;;;;8.40;2.67;;;;;;;;;;4977440;28;20447;-68
2022/08/10 11:56:47;;;;;;;9.93;2.60;;;;;;;;;;5011909;28;20053;-68
2022/08/10 12:01:59;;;;;;;6.70;2.83;;;;;;;;;;5011790;28;20167;-67
2022/08/10 12:04:27;;;;;;;10.95;2.28;;;;;;;;;;5011169;28;20296;-68
2022/08/10 12:06:53;;;;;;;7.65;2.15;;;;;;;;;;5011304;28;20145;-67
2022/08/10 12:09:21;;;;;;;6.85;2.33;;;;;;;;;;5011757;28;20077;-68
2022/08/10 12:11:48;;;;;;;6.50;2.30;;;;;;;;;;5011593;28;20129;-68
2022/08/10 12:14:17;;;;;;;6.60;2.50;;;;;;;;;;5011366;28;20046;-67
2022/08/10 12:16:48;;;;;;;6.78;2.20;;;;;;;;;;5010556;28;20054;-68
2022/08/10 12:19:14;;;;;;;10.00;2.60;;;;;;;;;;5010962;28;20475;-67
2022/08/10 12:21:52;;;;;;;7.40;2.65;;;;;;;;;;5010892;28;20123;-67
2022/08/10 12:24:30;;;;;;;8.00;2.53;;;;;;;;;;5011286;28;20113;-67
2022/08/10 12:26:59;;;;;;;7.93;2.70;;;;;;;;;;5010689;28;20046;-67
2022/08/10 12:29:40;;;;;;;8.82;2.58;;;;;;;;;;5011106;28;20111;-68
2022/08/10 12:32:10;;;;;;;10.00;2.50;;;;;;;;;;5011010;28;20144;-67
2022/08/10 12:34:55;;;;;;;13.13;3.22;;;;;;;;;;5010490;28;20037;-67
2022/08/10 12:37:33;;;;;;;7.07;2.75;;;;;;;;;;4993494;28;20057;-67
2022/08/10 12:40:09;;;;;;;8.23;2.55;;;;;;;;;;5009943;28;20076;-68
2022/08/10 12:42:58;;;;;;;9.93;2.50;;;;;;;;;;5010286;28;20050;-67
2022/08/10 12:45:39;;;;;;;9.55;2.72;;;;;;;;;;4982770;28;20109;-67
2022/08/10 12:48:06;;;;;;;8.68;2.53;;;;;;;;;;5010144;28;20049;-67
2022/08/10 12:50:52;;;;;;;9.57;2.85;;;;;;;;;;5009482;28;20153;-67
2022/08/10 12:53:20;;;;;;;7.10;2.35;;;;;;;;;;5009139;28;20149;-67
2022/08/10 12:55:48;;;;;;;7.60;2.35;;;;;;;;;;5010491;28;20066;-67
2022/08/10 12:58:15;;;;;;;9.45;2.50;;;;;;;;;;5010583;28;20054;-67
2022/08/10 13:00:42;;;;;;;11.13;2.90;;;;;;;;;;5010756;28;20466;-68
2022/08/10 13:03:09;;;;;;;10.20;2.60;;;;;;;;;;5010230;28;20053;-68
2022/08/10 13:05:35;;;;;;;7.68;2.58;;;;;;;;;;5010327;28;20049;-67
2022/08/10 13:10:49;;;;;;;9.45;2.90;;;;;;;;;;5010193;28;20116;-68
2022/08/10 13:13:18;;;;;;;7.63;2.30;;;;;;;;;;5009867;28;20442;-67
2022/08/10 13:15:45;;;;;;;5.80;2.20;;;;;;;;;;5010177;28;20050;-67
2022/08/10 13:18:12;;;;;;;6.75;2.55;;;;;;;;;;5009794;28;20065;-68
2022/08/10 13:20:41;;;;;;;6.70;2.58;;;;;;;;;;5010245;28;20064;-67
2022/08/10 13:23:12;;;;;;;6.50;2.63;;;;;;;;;;5009367;28;20600;-67
2022/08/10 13:25:39;;;;;;;8.15;2.28;;;;;;;;;;5009287;28;20434;-67
2022/08/10 13:28:08;;;;;;;7.43;2.70;;;;;;;;;;5009640;28;20053;-67
2022/08/10 13:30:34;;;;;;;11.82;2.83;;;;;;;;;;5009561;28;20474;-68
2022/08/10 13:33:01;;;;;;;5.43;2.20;;;;;;;;;;5009973;28;20062;-69
2022/08/10 13:35:28;;;;;;;6.60;2.22;;;;;;;;;;5009720;28;20473;-67
2022/08/10 13:37:56;;;;;;;8.70;2.47;;;;;;;;;;5009928;28;20050;-72
2022/08/10 13:40:23;;;;;;;5.60;2.30;;;;;;;;;;5009850;28;20058;-67
2022/08/10 13:42:51;;;;;;;10.57;2.78;;;;;;;;;;5009910;28;20128;-68
2022/08/10 13:45:19;;;;;;;8.40;2.53;;;;;;;;;;5009713;28;20136;-67
2022/08/10 13:47:48;;;;;;;9.38;2.60;;;;;;;;;;5009675;28;20069;-67
2022/08/10 13:50:19;;;;;;;8.48;2.95;;;;;;;;;;4991836;28;20090;-67
2022/08/10 13:52:50;;;;;;;6.25;2.60;;;;;;;;;;5009957;28;20054;-67
2022/08/10 13:55:17;;;;;;;8.90;2.72;;;;;;;;;;5009971;28;20057;-68
2022/08/10 13:57:48;;;;;;;7.07;2.60;;;;;;;;;;4991953;28;20060;-67
2022/08/10 14:00:14;;;;;;;8.60;2.70;;;;;;;;;;4991960;28;20057;-67
2022/08/10 14:02:42;;;;;;;6.63;2.50;;;;;;;;;;5009784;28;20346;-68
2022/08/10 14:05:09;;;;;;;9.32;2.72;;;;;;;;;;5009860;28;20454;-68
2022/08/10 14:07:39;;;;;;;12.32;2.83;;;;;;;;;;5009674;28;20467;-67
2022/08/10 14:10:07;;;;;;;9.30;2.67;;;;;;;;;;5008675;28;20413;-67
2022/08/10 14:12:37;;;;;;;8.82;2.72;;;;;;;;;;5009698;28;20050;-67
2022/08/10 14:15:05;;;;;;;7.72;2.50;;;;;;;;;;5009468;28;20344;-68
2022/08/10 14:17:32;;;;;;;10.15;2.75;;;;;;;;;;5009480;28;20069;-67
2022/08/10 14:19:59;;;;;;;8.82;2.72;;;;;;;;;;5008354;28;20098;-68
2022/08/10 14:22:26;;;;;;;7.95;2.70;;;;;;;;;;4991587;28;20441;-68
2022/08/10 14:24:52;;;;;;;7.15;2.65;;;;;;;;;;5009669;28;20124;-68
2022/08/10 14:27:18;;;;;;;10.98;2.50;;;;;;;;;;4991807;28;20050;-69
2022/08/10 14:29:50;;;;;;;6.88;2.53;;;;;;;;;;5009353;28;20042;-67
2022/08/10 14:32:18;;;;;;;9.40;2.97;;;;;;;;;;5009334;28;20181;-67
2022/08/10 14:34:44;;;;;;;7.00;2.60;;;;;;;;;;5009053;28;20061;-67
2022/08/10 14:37:15;;;;;;;8.38;2.53;;;;;;;;;;5007887;28;20454;-67
2022/08/10 14:39:55;;;;;;;10.13;2.47;;;;;;;;;;5009352;28;20057;-67
2022/08/10 14:42:25;;;;;;;9.07;2.63;;;;;;;;;;5008834;28;20064;-67
2022/08/10 14:45:00;;;;;;;7.93;2.55;;;;;;;;;;5008961;28;20050;-68
2022/08/10 14:47:28;;;;;;;9.65;2.58;;;;;;;;;;5008545;28;20075;-68
2022/08/10 14:49:55;;;;;;;8.18;2.50;;;;;;;;;;5009272;28;20057;-67
2022/08/10 14:52:22;;;;;;;6.25;2.50;;;;;;;;;;5008586;28;20505;-68
2022/08/10 14:54:53;;;;;;;7.20;2.30;;;;;;;;;;5008730;28;20085;-69
2022/08/10 14:57:24;;;;;;;6.93;2.58;;;;;;;;;;5008852;28;20133;-68
2022/08/10 14:59:55;;;;;;;7.15;2.67;;;;;;;;;;5008591;28;20045;-68
2022/08/10 15:02:23;;;;;;;9.00;2.70;;;;;;;;;;5008795;28;20561;-67